Time;durP1;ratioP1;P1;durP2;ratioP2;P2;SDS_P1;SDS_P2;PMS_P1;PMS_P2;Temp;Humidity;BMP_temperature;BMP_pressure;BME280_temperature;BME280_humidity;BME280_pressure;Samples;Min_cycle;Max_cycle;Signal;HPM_P1;HPM_P2
2023/07/03 00:00:35;;;;;;;14.32;2.60;;;;;;;12.43;92.27;100139.44;6151773;22;20006;-92
2023/07/03 00:03:02;;;;;;;16.70;2.25;;;;;;;12.41;91.98;100141.31;6254331;22;20063;-93
2023/07/03 00:05:27;;;;;;;14.73;2.88;;;;;;;12.40;91.66;100136.25;6152460;23;20021;-95
2023/07/03 00:07:53;;;;;;;15.40;2.78;;;;;;;12.37;91.90;100133.88;6254817;22;19997;-94
2023/07/03 00:10:21;;;;;;;13.80;2.80;;;;;;;12.43;91.89;100144.59;6254788;22;20080;-94
2023/07/03 00:12:47;;;;;;;17.10;3.60;;;;;;;12.34;90.42;100150.44;6254466;22;20010;-94
2023/07/03 00:15:13;;;;;;;17.75;2.90;;;;;;;12.34;91.07;100132.31;6151768;23;20012;-93
2023/07/03 00:17:38;;;;;;;22.88;3.35;;;;;;;12.30;91.00;100133.47;6151732;23;20077;-91
2023/07/03 00:20:06;;;;;;;16.83;2.50;;;;;;;12.32;90.39;100130.78;6255318;22;20436;-96
2023/07/03 00:22:31;;;;;;;8.52;2.50;;;;;;;12.36;90.02;100125.28;6254777;22;20440;-93
2023/07/03 00:24:57;;;;;;;11.32;2.10;;;;;;;12.43;89.43;100128.25;6151775;23;20031;-94
2023/07/03 00:27:22;;;;;;;16.83;2.53;;;;;;;12.25;90.27;100125.19;6254919;22;19998;-95
2023/07/03 00:29:48;;;;;;;14.60;2.97;;;;;;;12.25;89.88;100132.97;6151662;22;20008;-95
2023/07/03 00:32:13;;;;;;;14.82;2.58;;;;;;;12.25;90.04;100130.38;6255240;22;20009;-94
2023/07/03 00:34:38;;;;;;;11.38;2.13;;;;;;;12.20;89.96;100127.28;6151628;23;20016;-95
2023/07/03 00:37:04;;;;;;;13.80;2.63;;;;;;;12.17;90.14;100137.84;6255418;22;20327;-94
2023/07/03 00:39:29;;;;;;;10.38;2.17;;;;;;;12.23;90.00;100131.41;6254872;22;20344;-95
2023/07/03 00:41:55;;;;;;;11.07;2.53;;;;;;;12.20;90.33;100132.47;6151756;23;20445;-94
2023/07/03 00:44:20;;;;;;;11.85;2.50;;;;;;;12.19;90.12;100143.72;6254620;22;20032;-95
2023/07/03 00:46:50;;;;;;;17.88;2.45;;;;;;;12.20;90.50;100138.44;6254593;22;20001;-95
2023/07/03 00:49:16;;;;;;;14.40;2.40;;;;;;;12.16;91.00;100143.94;6254445;22;20040;-94
2023/07/03 00:51:48;;;;;;;13.75;2.35;;;;;;;12.16;90.37;100136.19;6254718;22;20424;-93
2023/07/03 00:54:14;;;;;;;8.50;1.67;;;;;;;12.10;90.92;100141.78;6254765;22;20059;-94
2023/07/03 00:56:40;;;;;;;13.25;2.03;;;;;;;12.07;91.50;100142.81;6152286;22;20367;-94
2023/07/03 00:59:06;;;;;;;11.85;1.98;;;;;;;12.04;91.76;100130.06;6254952;22;20085;-94
2023/07/03 01:01:55;;;;;;;10.68;2.17;;;;;;;12.12;91.22;100135.56;6254060;22;20479;-93
2023/07/03 01:04:27;;;;;;;10.25;1.83;;;;;;;12.10;91.57;100137.44;6254447;22;20471;-95
2023/07/03 01:07:14;;;;;;;11.68;2.45;;;;;;;12.09;91.93;100140.13;6254079;22;20010;-93
2023/07/03 01:09:47;;;;;;;15.52;2.97;;;;;;;12.04;92.35;100130.06;6151530;22;20024;-93
2023/07/03 01:12:14;;;;;;;10.98;1.83;;;;;;;12.03;92.44;100135.38;6254553;22;20021;-93
2023/07/03 01:14:43;;;;;;;11.32;1.88;;;;;;;11.96;93.02;100127.19;6254666;22;20001;-96
2023/07/03 01:17:10;;;;;;;11.60;2.00;;;;;;;11.93;92.53;100124.84;6254364;22;20011;-95
2023/07/03 01:19:39;;;;;;;7.70;1.90;;;;;;;11.90;92.17;100122.44;6254140;22;20055;-92
2023/07/03 01:22:15;;;;;;;8.55;1.88;;;;;;;11.88;91.62;100127.72;6253778;22;20033;-95
2023/07/03 01:24:52;;;;;;;7.85;1.60;;;;;;;11.84;92.31;100133.16;6254002;22;20013;-93
2023/07/03 01:27:20;;;;;;;7.50;1.60;;;;;;;11.80;92.81;100119.59;6254148;22;20032;-93
2023/07/03 01:29:50;;;;;;;10.57;1.95;;;;;;;11.70;93.76;100128.91;6253770;22;20035;-93
2023/07/03 01:32:19;;;;;;;13.98;2.83;;;;;;;11.69;94.34;100116.94;6254001;22;20051;-93
2023/07/03 01:34:46;;;;;;;8.07;2.17;;;;;;;11.65;94.65;100124.06;6253835;22;20239;-93
2023/07/03 01:37:14;;;;;;;11.13;2.30;;;;;;;11.68;95.44;100112.69;6254225;22;20438;-92
2023/07/03 01:39:43;;;;;;;10.13;1.92;;;;;;;11.56;95.04;100115.19;6253599;22;20002;-94
2023/07/03 01:42:10;;;;;;;9.75;2.05;;;;;;;11.60;94.18;100122.72;6151372;23;20043;-93
2023/07/03 01:44:36;;;;;;;9.68;2.00;;;;;;;11.51;94.56;100122.41;6253759;22;20054;-91
2023/07/03 01:47:10;;;;;;;7.20;1.45;;;;;;;11.50;95.17;100120.75;6150816;23;20036;-91
2023/07/03 01:49:36;;;;;;;9.27;2.20;;;;;;;11.45;95.13;100114.22;6253677;22;20005;-92
2023/07/03 01:52:18;;;;;;;10.63;1.98;;;;;;;11.36;96.19;100110.47;6253100;22;20029;-95
2023/07/03 01:55:01;;;;;;;10.98;2.20;;;;;;;11.29;97.03;100112.66;6254005;22;20094;-95
2023/07/03 01:57:39;;;;;;;12.60;2.10;;;;;;;11.29;98.18;100109.22;6151151;23;20006;-94
2023/07/03 02:00:09;;;;;;;14.95;2.03;;;;;;;11.30;98.49;100116.06;6253694;22;20013;-94
2023/07/03 02:02:36;;;;;;;14.15;1.90;;;;;;;11.23;97.95;100109.66;6253692;22;20001;-93
2023/07/03 02:05:09;;;;;;;4.30;1.30;;;;;;;11.31;96.86;100107.38;6253679;22;20002;-93
2023/07/03 02:07:37;;;;;;;10.57;2.00;;;;;;;11.21;97.32;100106.34;6253339;22;20498;-93
2023/07/03 02:10:03;;;;;;;7.15;1.75;;;;;;;11.06;97.99;100096.06;6253522;22;20006;-94
2023/07/03 02:12:29;;;;;;;10.10;1.88;;;;;;;11.02;98.33;100101.53;6253442;22;19998;-95
2023/07/03 02:15:00;;;;;;;9.55;2.17;;;;;;;11.04;98.24;100105.66;6253594;22;20036;-94
2023/07/03 02:17:26;;;;;;;17.30;2.33;;;;;;;11.00;97.69;100096.47;6150841;23;20030;-93
2023/07/03 02:19:51;;;;;;;11.63;2.17;;;;;;;10.94;97.79;100102.03;6253440;22;20332;-94
2023/07/03 02:22:16;;;;;;;7.60;1.65;;;;;;;10.97;97.73;100104.41;6150996;23;20093;-93
2023/07/03 02:24:42;;;;;;;8.98;1.45;;;;;;;10.90;97.87;100103.16;6253571;22;20432;-94
2023/07/03 02:27:07;;;;;;;11.05;1.73;;;;;;;10.82;98.49;100095.06;6253253;22;20044;-95
2023/07/03 02:29:33;;;;;;;6.40;1.70;;;;;;;10.76;99.98;100100.63;6253434;22;20001;-92
2023/07/03 02:31:58;;;;;;;10.45;2.88;;;;;;;10.85;99.45;100110.34;6253653;22;20017;-93
2023/07/03 02:34:24;;;;;;;13.38;2.42;;;;;;;10.91;99.86;100109.97;6151114;23;20371;-91
2023/07/03 02:36:49;;;;;;;12.63;2.45;;;;;;;11.10;99.72;100107.03;6253193;22;19997;-92
2023/07/03 02:39:15;;;;;;;10.90;1.77;;;;;;;11.13;100.00;100109.41;6253713;22;20029;-92
2023/07/03 02:41:40;;;;;;;6.25;1.70;;;;;;;11.10;100.00;100109.63;6252970;22;20420;-92
2023/07/03 02:44:05;;;;;;;8.45;1.98;;;;;;;11.14;100.00;100111.06;6253013;22;20014;-93
2023/07/03 02:46:31;;;;;;;9.45;2.45;;;;;;;11.26;99.36;100112.03;6253014;22;20060;-92
2023/07/03 02:48:56;;;;;;;15.80;2.40;;;;;;;11.39;97.95;100109.44;6253457;22;20012;-93
2023/07/03 02:51:22;;;;;;;10.50;2.30;;;;;;;11.45;97.58;100109.88;6253301;22;20002;-94
2023/07/03 02:53:47;;;;;;;6.97;1.42;;;;;;;11.33;98.04;100102.94;6253761;22;20017;-94
2023/07/03 02:56:13;;;;;;;14.20;2.53;;;;;;;11.38;97.74;100103.47;6253074;22;20006;-94
2023/07/03 02:58:38;;;;;;;9.20;2.17;;;;;;;11.28;97.45;100110.16;6253131;22;20012;-93
2023/07/03 03:01:04;;;;;;;9.73;1.48;;;;;;;11.20;97.40;100112.44;6253604;22;20049;-93
2023/07/03 03:03:30;;;;;;;5.75;1.55;;;;;;;11.36;97.22;100105.31;6254304;22;20432;-91
2023/07/03 03:05:55;;;;;;;10.05;1.50;;;;;;;11.24;96.79;100112.13;6255305;22;20037;-92
2023/07/03 03:08:24;;;;;;;4.47;1.00;;;;;;;11.20;97.58;100117.59;6255016;22;20021;-93
2023/07/03 03:10:51;;;;;;;11.05;1.52;;;;;;;11.21;97.28;100120.06;6255821;22;20310;-94
2023/07/03 03:13:17;;;;;;;8.15;1.80;;;;;;;11.44;95.28;100118.56;6255351;22;20014;-92
2023/07/03 03:15:43;;;;;;;9.45;1.48;;;;;;;11.34;95.88;100117.53;6255588;22;20016;-94
2023/07/03 03:18:09;;;;;;;8.80;2.47;;;;;;;11.27;96.13;100126.63;6254876;22;20001;-93
2023/07/03 03:20:34;;;;;;;8.30;2.08;;;;;;;11.18;96.11;100119.44;6255080;22;20006;-94
2023/07/03 03:22:59;;;;;;;8.60;1.83;;;;;;;11.14;96.37;100126.56;6151491;23;20444;-93
2023/07/03 03:25:25;;;;;;;8.95;1.52;;;;;;;11.05;97.15;100117.66;6151738;23;20001;-95
2023/07/03 03:27:50;;;;;;;8.45;1.70;;;;;;;11.02;97.96;100111.84;6254955;22;20343;-92
2023/07/03 03:30:15;;;;;;;9.05;1.65;;;;;;;11.00;97.78;100105.97;6254776;22;20075;-92
2023/07/03 03:32:42;;;;;;;9.48;2.10;;;;;;;11.31;96.82;100097.91;6151505;23;20471;-93
2023/07/03 03:35:08;;;;;;;11.20;2.40;;;;;;;11.45;94.58;100103.88;6254514;22;20339;-92
2023/07/03 03:37:33;;;;;;;6.47;1.95;;;;;;;11.30;95.00;100096.22;6254876;22;20005;-93
2023/07/03 03:39:59;;;;;;;10.68;1.88;;;;;;;11.26;95.03;100093.94;6254499;22;20051;-94
2023/07/03 03:42:24;;;;;;;11.93;1.90;;;;;;;11.27;94.05;100095.63;6254821;22;20016;-92
2023/07/03 03:44:50;;;;;;;10.32;2.13;;;;;;;11.43;93.20;100093.66;6254762;22;20037;-93
2023/07/03 03:47:15;;;;;;;8.32;1.50;;;;;;;11.21;94.18;100101.16;6151627;23;20435;-93
2023/07/03 03:49:40;;;;;;;4.35;1.30;;;;;;;11.13;95.63;100099.09;6152013;22;20037;-93
2023/07/03 03:52:06;;;;;;;10.25;1.60;;;;;;;11.06;96.49;100098.66;6254445;22;20005;-94
2023/07/03 03:54:32;;;;;;;11.40;1.85;;;;;;;11.11;96.51;100096.59;6255217;22;20336;-93
2023/07/03 03:56:57;;;;;;;9.65;2.15;;;;;;;11.20;95.75;100104.69;6254593;22;20002;-95
2023/07/03 03:59:23;;;;;;;8.98;1.90;;;;;;;11.31;94.26;100107.38;6254284;22;20084;-94
2023/07/03 04:01:50;;;;;;;8.80;1.52;;;;;;;11.19;95.07;100097.84;6254904;22;20036;-92
2023/07/03 04:04:16;;;;;;;6.93;1.77;;;;;;;11.11;96.27;100096.59;6254035;22;20013;-93
2023/07/03 04:06:41;;;;;;;7.82;1.67;;;;;;;11.08;96.75;100091.63;6151449;23;20058;-92
2023/07/03 04:09:07;;;;;;;6.53;1.10;;;;;;;11.04;98.03;100092.75;6254774;22;20006;-93
2023/07/03 04:11:33;;;;;;;7.00;1.25;;;;;;;11.02;98.11;100091.19;6255287;22;20298;-95
2023/07/03 04:13:59;;;;;;;7.53;1.73;;;;;;;10.94;98.38;100089.13;6254443;22;20002;-94
2023/07/03 04:16:26;;;;;;;10.10;2.38;;;;;;;10.94;98.19;100089.13;6254989;22;20004;-93
2023/07/03 04:18:52;;;;;;;9.63;1.60;;;;;;;10.89;98.29;100086.81;6254805;22;20087;-92
2023/07/03 04:21:17;;;;;;;10.15;1.65;;;;;;;10.85;98.72;100092.28;6151188;22;20001;-93
2023/07/03 04:23:42;;;;;;;6.47;1.70;;;;;;;10.84;98.74;100094.03;6253979;22;20009;-94
2023/07/03 04:26:08;;;;;;;6.00;1.40;;;;;;;10.82;99.20;100084.75;6254602;22;20009;-92
2023/07/03 04:28:34;;;;;;;8.77;1.92;;;;;;;10.81;98.94;100088.25;6254612;22;20006;-93
2023/07/03 04:30:59;;;;;;;8.18;1.67;;;;;;;10.83;98.82;100082.06;6151598;22;20085;-93
2023/07/03 04:33:25;;;;;;;7.00;1.40;;;;;;;10.83;98.82;100084.66;6254372;22;20031;-95
2023/07/03 04:35:50;;;;;;;6.72;1.92;;;;;;;10.85;98.25;100090.56;6254230;22;20036;-93
2023/07/03 04:38:17;;;;;;;7.57;2.08;;;;;;;10.83;98.79;100079.50;6254439;22;20455;-93
2023/07/03 04:40:44;;;;;;;10.30;2.08;;;;;;;10.87;98.59;100082.69;6253838;22;20262;-94
2023/07/03 04:43:09;;;;;;;8.82;2.47;;;;;;;11.10;97.85;100084.63;6254263;22;20514;-92
2023/07/03 04:45:50;;;;;;;7.95;1.50;;;;;;;11.02;98.13;100086.88;6151638;23;20002;-95
2023/07/03 04:48:18;;;;;;;8.27;2.08;;;;;;;11.01;98.00;100079.22;6254452;22;20011;-94
2023/07/03 04:50:48;;;;;;;12.30;1.63;;;;;;;10.98;98.56;100082.84;6151459;22;20005;-92
2023/07/03 04:53:14;;;;;;;9.48;1.95;;;;;;;11.00;98.69;100083.56;6254407;22;20417;-94
2023/07/03 04:55:40;;;;;;;7.40;1.80;;;;;;;11.02;98.34;100079.13;6253965;22;20016;-94
2023/07/03 04:58:05;;;;;;;8.25;1.77;;;;;;;11.01;98.14;100084.38;6254104;22;20009;-94
2023/07/03 05:00:31;;;;;;;6.45;1.65;;;;;;;10.99;98.13;100089.63;6254147;22;20021;-95
2023/07/03 05:03:02;;;;;;;5.88;1.25;;;;;;;10.97;98.55;100082.94;6254462;22;20006;-93
2023/07/03 05:05:28;;;;;;;6.78;1.70;;;;;;;11.00;98.51;100087.88;6253904;22;20341;-94
2023/07/03 05:07:54;;;;;;;7.32;1.50;;;;;;;11.00;98.30;100083.56;6254382;22;20009;-94
2023/07/03 05:10:21;;;;;;;10.27;1.67;;;;;;;11.07;98.15;100083.97;6254413;22;20001;-94
2023/07/03 05:12:47;;;;;;;6.53;1.85;;;;;;;11.14;98.40;100091.25;6254412;22;20044;-94
2023/07/03 05:15:15;;;;;;;6.82;1.60;;;;;;;11.26;96.91;100083.59;6253895;22;20005;-93
2023/07/03 05:17:41;;;;;;;10.00;1.48;;;;;;;11.35;96.50;100083.00;6151426;23;20032;-93
2023/07/03 05:20:12;;;;;;;7.35;1.75;;;;;;;11.50;95.50;100071.63;6254061;22;20017;-93
2023/07/03 05:22:39;;;;;;;7.88;1.67;;;;;;;11.54;94.46;100074.84;6253817;22;20005;-94
2023/07/03 05:25:06;;;;;;;4.18;1.30;;;;;;;11.62;93.87;100069.97;6150542;22;20033;-94
2023/07/03 05:27:33;;;;;;;9.32;2.65;;;;;;;11.69;93.44;100080.75;6253378;22;20036;-93
2023/07/03 05:29:58;;;;;;;10.05;1.95;;;;;;;11.74;93.49;100081.25;6253481;22;20035;-93
2023/07/03 05:32:24;;;;;;;4.47;1.40;;;;;;;11.88;93.30;100081.19;6253799;22;20010;-94
2023/07/03 05:34:50;;;;;;;5.30;1.13;;;;;;;12.01;93.41;100077.75;6253918;22;20002;-93
2023/07/03 05:37:15;;;;;;;5.78;1.92;;;;;;;12.13;91.64;100074.31;6253698;22;20479;-94
2023/07/03 05:39:41;;;;;;;9.50;1.55;;;;;;;12.26;90.99;100080.25;6151300;22;20012;-94
2023/07/03 05:42:07;;;;;;;8.48;1.30;;;;;;;12.37;89.75;100082.94;6253462;22;20183;-95
2023/07/03 05:44:32;;;;;;;14.75;1.90;;;;;;;12.53;89.18;100087.00;6253352;22;20495;-95
2023/07/03 05:46:58;;;;;;;11.23;2.58;;;;;;;12.65;88.42;100091.31;6253863;22;20001;-94
2023/07/03 05:49:23;;;;;;;9.05;1.60;;;;;;;12.81;87.30;100089.28;6253399;22;20001;-93
2023/07/03 05:51:49;;;;;;;7.18;1.73;;;;;;;12.90;86.34;100094.72;6150659;23;20036;-94
2023/07/03 05:54:16;;;;;;;10.50;2.08;;;;;;;12.76;86.46;100095.75;6253928;22;20027;-93
2023/07/03 05:56:43;;;;;;;10.68;1.63;;;;;;;12.72;87.63;100096.88;6253465;22;20012;-92
2023/07/03 05:59:08;;;;;;;9.25;1.95;;;;;;;12.69;88.21;100097.94;6254502;22;20006;-93
2023/07/03 06:01:34;;;;;;;12.93;2.03;;;;;;;12.71;88.72;100101.25;6253458;22;20055;-94
2023/07/03 06:03:59;;;;;;;14.10;2.03;;;;;;;12.82;88.69;100097.88;6150881;23;20421;-93
2023/07/03 06:06:24;;;;;;;5.85;1.50;;;;;;;12.96;87.60;100097.69;6253987;22;20013;-91
2023/07/03 06:08:50;;;;;;;8.65;2.17;;;;;;;13.09;86.08;100110.56;6254740;22;20002;-94
2023/07/03 06:11:15;;;;;;;10.90;1.63;;;;;;;13.11;86.17;100111.28;6254812;22;20363;-93
2023/07/03 06:13:41;;;;;;;7.63;1.70;;;;;;;13.10;86.93;100107.06;6257283;22;20005;-93
2023/07/03 06:16:06;;;;;;;9.38;1.60;;;;;;;13.18;86.64;100109.91;6257254;22;20184;-93
2023/07/03 06:18:32;;;;;;;8.40;2.30;;;;;;;13.32;86.34;100111.53;6153317;23;20469;-93
2023/07/03 06:20:57;;;;;;;7.10;1.27;;;;;;;13.34;86.04;100111.38;6255014;22;20001;-93
2023/07/03 06:23:22;;;;;;;13.73;2.00;;;;;;;13.54;86.06;100109.94;6253495;22;20006;-93
2023/07/03 06:25:48;;;;;;;6.15;1.55;;;;;;;13.65;82.21;100108.16;6254947;22;20574;-92
2023/07/03 06:28:13;;;;;;;8.05;2.00;;;;;;;13.61;79.48;100111.13;6253928;22;20451;-93
2023/07/03 06:30:45;;;;;;;8.98;1.80;;;;;;;13.80;79.59;100106.19;6150481;22;20028;-94
2023/07/03 06:33:11;;;;;;;10.70;1.98;;;;;;;13.97;77.71;100104.88;6151319;23;20001;-94
2023/07/03 06:35:36;;;;;;;15.98;2.28;;;;;;;14.23;71.73;100104.63;6150409;23;20066;-93
2023/07/03 06:38:03;;;;;;;7.00;1.38;;;;;;;16.15;65.31;100113.22;6255213;22;20328;-94
2023/07/03 06:40:28;;;;;;;8.95;1.90;;;;;;;18.28;55.03;100113.19;6255788;22;19998;-94
2023/07/03 06:42:53;;;;;;;7.85;1.63;;;;;;;19.92;50.71;100125.84;6151796;23;19998;-93
2023/07/03 06:45:19;;;;;;;4.75;1.00;;;;;;;21.29;47.45;100120.28;6255111;22;20005;-93
2023/07/03 06:47:44;;;;;;;14.93;2.50;;;;;;;20.06;49.36;100116.59;6255022;22;20013;-95
2023/07/03 06:50:10;;;;;;;7.63;1.10;;;;;;;17.86;53.36;100124.91;6151435;22;20012;-93
2023/07/03 06:52:36;;;;;;;11.25;1.85;;;;;;;17.39;55.84;100126.66;6255105;22;20013;-96
2023/07/03 06:55:05;;;;;;;10.27;1.88;;;;;;;16.85;57.96;100126.25;6255225;22;20002;-94
2023/07/03 06:57:32;;;;;;;8.95;1.70;;;;;;;16.62;59.82;100123.88;6255338;22;20009;-92
2023/07/03 06:59:58;;;;;;;6.78;1.88;;;;;;;16.41;60.13;100120.53;6255106;22;20130;-95
2023/07/03 07:02:23;;;;;;;10.60;1.92;;;;;;;17.61;56.77;100107.25;6255202;22;20044;-94
2023/07/03 07:04:53;;;;;;;10.10;1.67;;;;;;;17.17;57.50;100101.69;6254940;22;20012;-94
2023/07/03 07:07:18;;;;;;;9.73;1.55;;;;;;;16.77;58.37;100105.22;6255206;22;20013;-95
2023/07/03 07:09:43;;;;;;;9.25;1.40;;;;;;;17.45;57.42;100097.41;6151533;22;20006;-94
2023/07/03 07:12:09;;;;;;;8.23;1.50;;;;;;;16.75;57.96;100102.75;6254750;22;20001;-93
2023/07/03 07:14:35;;;;;;;8.77;1.50;;;;;;;16.41;59.19;100107.50;6254496;22;20040;-95
2023/07/03 07:17:00;;;;;;;6.93;1.83;;;;;;;16.09;60.52;100110.28;6254806;22;20009;-94
2023/07/03 07:19:26;;;;;;;8.10;1.30;;;;;;;15.66;60.79;100101.72;6151874;22;20001;-95
2023/07/03 07:21:51;;;;;;;10.50;1.90;;;;;;;15.55;61.63;100107.00;6255266;22;20037;-94
2023/07/03 07:24:22;;;;;;;16.65;4.07;;;;;;;15.43;62.71;100103.66;6151894;22;20009;-94
2023/07/03 07:26:50;;;;;;;14.63;5.72;;;;;;;15.19;63.29;100099.53;6254766;22;20008;-95
2023/07/03 07:29:16;;;;;;;14.27;6.03;;;;;;;15.25;63.82;100106.00;6254359;22;20047;-93
2023/07/03 07:31:41;;;;;;;16.02;6.35;;;;;;;15.20;62.87;100108.16;6256122;22;19997;-94
2023/07/03 07:34:08;;;;;;;21.02;6.60;;;;;;;15.13;63.45;100123.41;6151370;22;20009;-93
2023/07/03 07:36:33;;;;;;;15.25;5.75;;;;;;;15.15;63.68;100116.31;6151327;23;20074;-93
2023/07/03 07:39:00;;;;;;;10.35;3.28;;;;;;;15.27;64.02;100106.69;6254554;22;20409;-93
2023/07/03 07:41:26;;;;;;;10.85;4.25;;;;;;;15.51;63.35;100097.78;6254512;22;20006;-94
2023/07/03 07:43:53;;;;;;;16.48;7.95;;;;;;;16.58;60.29;100096.44;6254035;22;20016;-93
2023/07/03 07:46:19;;;;;;;8.32;2.28;;;;;;;18.10;55.57;100090.47;6254548;22;20416;-95
2023/07/03 07:48:46;;;;;;;11.57;4.60;;;;;;;18.68;54.11;100086.66;6254000;22;20080;-94
2023/07/03 07:51:12;;;;;;;9.52;2.05;;;;;;;19.34;52.32;100090.66;6151891;22;20006;-95
2023/07/03 07:53:38;;;;;;;8.73;2.05;;;;;;;18.70;52.83;100089.94;6151235;23;20005;-94
2023/07/03 07:56:06;;;;;;;16.85;1.77;;;;;;;18.40;54.35;100110.22;6255415;22;20367;-94
2023/07/03 07:58:32;;;;;;;9.82;1.45;;;;;;;17.96;56.52;100110.03;6151534;23;20049;-94
2023/07/03 08:00:58;;;;;;;8.98;1.65;;;;;;;17.34;59.94;100108.81;6254536;22;20025;-94
2023/07/03 08:03:24;;;;;;;13.32;2.42;;;;;;;16.42;64.68;100117.81;6254074;22;20039;-94
2023/07/03 08:05:54;;;;;;;10.52;1.95;;;;;;;15.75;68.70;100111.41;6254366;22;20001;-93
2023/07/03 08:08:20;;;;;;;11.67;2.00;;;;;;;15.55;71.25;100100.03;6254238;22;20063;-93
2023/07/03 08:10:53;;;;;;;4.63;1.60;;;;;;;15.76;71.39;100097.44;6151566;22;20059;-94
2023/07/03 08:13:19;;;;;;;5.88;2.10;;;;;;;15.69;72.92;100098.88;6150877;23;20006;-92
2023/07/03 08:15:45;;;;;;;8.60;2.22;;;;;;;15.60;76.32;100104.84;6254610;22;20013;-94
2023/07/03 08:18:11;;;;;;;9.52;2.30;;;;;;;15.50;78.42;100099.56;6151585;23;20005;-93
2023/07/03 08:20:36;;;;;;;11.93;1.88;;;;;;;15.32;82.37;100109.75;6254302;22;20360;-95
2023/07/03 08:23:01;;;;;;;13.23;3.72;;;;;;;15.22;84.02;100098.47;6254202;22;20482;-95
2023/07/03 08:25:27;;;;;;;11.48;2.25;;;;;;;15.07;84.54;100102.28;6253888;22;20469;-93
2023/07/03 08:27:53;;;;;;;10.35;1.77;;;;;;;14.91;84.07;100098.34;6254480;22;20191;-94
2023/07/03 08:30:21;;;;;;;7.55;1.83;;;;;;;14.99;86.97;100106.34;6254533;22;20010;-93
2023/07/03 08:32:47;;;;;;;8.18;1.67;;;;;;;15.17;87.42;100101.44;6253810;22;20345;-94
2023/07/03 08:35:13;;;;;;;10.20;1.98;;;;;;;15.43;84.44;100108.03;6151740;23;20008;-94
2023/07/03 08:37:38;;;;;;;10.50;2.75;;;;;;;15.58;84.01;100101.53;6151474;22;20077;-94
2023/07/03 08:40:05;;;;;;;12.13;1.75;;;;;;;16.16;81.99;100091.41;6151769;22;20363;-94
2023/07/03 08:42:54;;;;;;;9.35;2.17;;;;;;;16.51;80.01;100099.72;6254017;22;20428;-94
2023/07/03 08:45:33;;;;;;;8.10;1.65;;;;;;;16.25;78.05;100098.44;6158877;22;20005;-95
2023/07/03 08:48:01;;;;;;;11.13;2.20;;;;;;;16.39;77.69;100096.41;6254288;22;20009;-94
2023/07/03 08:50:28;;;;;;;18.80;3.35;;;;;;;16.38;78.95;100099.97;6151407;22;20025;-94
2023/07/03 08:52:58;;;;;;;12.32;3.08;;;;;;;16.68;74.32;100091.25;6254221;22;20001;-94
2023/07/03 08:55:31;;;;;;;10.45;1.90;;;;;;;16.80;74.81;100089.34;6151467;22;20424;-92
2023/07/03 08:57:56;;;;;;;9.45;2.10;;;;;;;16.88;75.15;100087.72;6253744;22;20088;-94
2023/07/03 09:00:22;;;;;;;11.77;2.40;;;;;;;16.95;73.57;100093.22;6253838;22;20037;-93
2023/07/03 09:03:00;;;;;;;11.45;2.15;;;;;;;17.09;73.05;100090.19;6254087;22;20337;-94
2023/07/03 09:05:44;;;;;;;14.50;2.65;;;;;;;17.23;71.73;100082.88;6253930;22;20067;-93
2023/07/03 09:08:16;;;;;;;11.75;2.72;;;;;;;17.68;67.63;100090.88;6254154;22;20009;-94
2023/07/03 09:10:44;;;;;;;;;;;;;;;19.17;63.55;100076.63;6254805;22;20013;-93
2023/07/03 09:13:15;;;;;;;13.98;4.07;;;;;;;19.25;62.90;100076.69;6152449;23;19950;-92
2023/07/03 09:15:46;;;;;;;;;;;;;;;18.95;61.71;100064.06;6256239;22;20002;-92
2023/07/03 09:18:19;;;;;;;9.13;2.30;;;;;;;19.11;60.67;100074.63;6260264;22;19908;-95
2023/07/03 09:20:45;;;;;;;16.08;3.30;;;;;;;18.81;58.51;100083.69;6258888;22;20006;-93
2023/07/03 09:23:27;;;;;;;14.35;3.03;;;;;;;18.89;59.75;100062.84;6258912;22;20092;-94
2023/07/03 09:25:56;;;;;;;15.85;3.97;;;;;;;18.64;58.65;100077.47;6153955;23;19997;-94
2023/07/03 09:28:22;;;;;;;10.32;2.95;;;;;;;18.27;56.35;100086.25;6152567;23;20002;-93
2023/07/03 09:30:48;;;;;;;13.32;3.38;;;;;;;18.14;57.33;100063.09;6258808;22;20009;-94
2023/07/03 09:33:13;;;;;;;10.45;2.28;;;;;;;18.90;54.02;100055.81;6155307;23;20006;-94
2023/07/03 09:35:40;;;;;;;9.20;2.78;;;;;;;19.50;53.89;100063.75;6154648;22;20053;-94
2023/07/03 09:38:15;;;;;;;10.35;4.22;;;;;;;19.84;52.32;100060.34;6153511;23;20344;-94
2023/07/03 09:40:44;;;;;;;11.15;4.00;;;;;;;19.74;51.95;100043.94;6258681;22;20006;-92
2023/07/03 09:43:24;;;;;;;10.77;2.40;;;;;;;20.25;50.36;100042.97;6260565;22;20012;-93
2023/07/03 09:46:01;;;;;;;13.25;7.38;;;;;;;19.72;51.54;100045.91;6159832;23;20006;-93
2023/07/03 09:48:30;;;;;;;7.88;4.55;;;;;;;19.66;51.81;100045.50;6158520;23;20435;-93
2023/07/03 09:50:56;;;;;;;9.55;2.13;;;;;;;19.83;50.99;100043.00;6261734;22;20065;-93
2023/07/03 09:53:26;;;;;;;7.22;2.40;;;;;;;20.35;49.78;100039.38;6266642;22;20012;-93
2023/07/03 09:55:56;;;;;;;11.07;2.67;;;;;;;20.70;50.00;100035.66;6269877;22;20005;-94
2023/07/03 09:58:27;;;;;;;10.65;4.55;;;;;;;20.59;49.33;100043.88;6265666;22;20009;-93
2023/07/03 10:00:55;;;;;;;10.65;3.08;;;;;;;20.19;48.49;100042.78;6261244;22;20425;-94
2023/07/03 10:03:30;;;;;;;9.30;1.95;;;;;;;19.81;49.02;100052.81;6261350;22;20463;-92
2023/07/03 10:06:03;;;;;;;5.78;2.95;;;;;;;19.58;49.35;100069.06;6154014;23;20002;-93
2023/07/03 10:08:28;;;;;;;11.30;4.78;;;;;;;18.88;51.26;100052.56;6258821;22;20009;-93
2023/07/03 10:10:58;;;;;;;13.68;2.72;;;;;;;19.01;51.44;100052.97;6153938;22;20009;-91
2023/07/03 10:13:29;;;;;;;7.95;3.50;;;;;;;19.02;52.47;100059.84;6157066;23;20074;-91
2023/07/03 10:15:55;;;;;;;9.32;3.00;;;;;;;18.92;52.64;100059.09;6156922;23;20006;-92
2023/07/03 10:18:29;;;;;;;11.30;3.63;;;;;;;18.88;54.41;100058.59;6158492;22;20012;-92
2023/07/03 10:20:55;;;;;;;13.43;4.15;;;;;;;18.52;57.87;100076.84;6259629;22;20328;-93
2023/07/03 10:23:32;;;;;;;8.85;2.50;;;;;;;18.07;58.32;100075.09;6158324;23;20439;-93
2023/07/03 10:26:10;;;;;;;7.25;2.20;;;;;;;18.22;59.58;100064.16;6156664;23;20005;-93
2023/07/03 10:28:43;;;;;;;6.75;2.38;;;;;;;18.42;59.40;100062.22;6155946;23;20084;-93
2023/07/03 10:31:14;;;;;;;8.40;1.90;;;;;;;19.40;56.13;100060.44;6260257;22;20059;-94
2023/07/03 10:33:47;;;;;;;8.30;2.40;;;;;;;20.34;54.56;100059.53;6154558;23;20005;-94
2023/07/03 10:36:22;;;;;;;7.43;1.75;;;;;;;21.09;52.17;100045.50;6261221;22;20005;-95
2023/07/03 10:38:57;;;;;;;7.85;2.42;;;;;;;21.53;51.38;100037.22;6154219;23;20432;-94
2023/07/03 10:41:30;;;;;;;9.35;3.15;;;;;;;21.47;50.12;100038.72;6260539;22;20015;-93
2023/07/03 10:44:00;;;;;;;10.10;3.15;;;;;;;21.19;49.80;100040.91;6264866;22;20013;-93
2023/07/03 10:46:50;;;;;;;5.75;2.13;;;;;;;20.86;49.72;100029.63;6157262;23;20001;-94
2023/07/03 10:49:26;;;;;;;12.50;2.80;;;;;;;20.20;52.10;100041.81;6155221;22;20002;-93
2023/07/03 10:52:16;;;;;;;8.43;2.83;;;;;;;19.79;51.43;100041.66;6256773;22;20010;-94
2023/07/03 10:55:05;;;;;;;8.77;2.65;;;;;;;20.18;50.96;100041.16;6154431;23;20084;-94
2023/07/03 10:57:44;;;;;;;11.10;2.50;;;;;;;20.05;50.63;100039.81;6153253;23;20029;-94
2023/07/03 11:00:17;;;;;;;8.85;2.47;;;;;;;19.65;51.32;100030.78;6153900;22;20005;-93
2023/07/03 11:03:07;;;;;;;14.73;2.63;;;;;;;19.87;50.91;100057.41;6153586;23;20032;-93
2023/07/03 11:05:40;;;;;;;8.18;2.55;;;;;;;19.91;50.79;100024.69;6256778;22;20088;-94
2023/07/03 11:08:32;;;;;;;11.23;3.00;;;;;;;19.85;50.12;100023.53;6256488;22;20006;-93
2023/07/03 11:11:06;;;;;;;;;;;;;;;20.14;51.21;100022.28;6257053;22;20029;-94
2023/07/03 11:13:48;;;;;;;7.65;2.28;;;;;;;19.91;50.80;100014.22;6153393;23;19961;-93
2023/07/03 11:16:15;;;;;;;11.10;2.83;;;;;;;19.84;50.82;100018.44;6256585;22;20013;-94
2023/07/03 11:19:09;;;;;;;8.23;2.28;;;;;;;19.21;52.61;100022.19;6256953;22;20324;-94
2023/07/03 11:21:53;;;;;;;12.73;3.03;;;;;;;18.87;54.15;100053.50;6256213;22;20009;-92
2023/07/03 11:24:38;;;;;;;22.63;3.40;;;;;;;18.22;61.56;100040.63;6254793;22;20009;-93
2023/07/03 11:27:32;;;;;;;9.15;2.70;;;;;;;17.90;66.79;100063.63;6151238;23;20077;-94